sensor_id;sensor_type;location;lat;lon;timestamp;P1;durP1;ratioP1;P2;durP2;ratioP2
52744;SDS011;38637;49.984;20.426;2024-02-14T00:01:41;22.73;;;14.67;;
52744;SDS011;38637;49.984;20.426;2024-02-14T00:04:06;21.83;;;15.07;;
52744;SDS011;38637;49.984;20.426;2024-02-14T00:06:34;18.50;;;12.95;;
52744;SDS011;38637;49.984;20.426;2024-02-14T00:09:01;19.30;;;12.82;;
52744;SDS011;38637;49.984;20.426;2024-02-14T00:11:26;20.27;;;12.80;;
52744;SDS011;38637;49.984;20.426;2024-02-14T00:13:51;20.83;;;14.47;;
52744;SDS011;38637;49.984;20.426;2024-02-14T00:16:16;19.90;;;13.53;;
52744;SDS011;38637;49.984;20.426;2024-02-14T00:18:42;18.20;;;13.27;;
52744;SDS011;38637;49.984;20.426;2024-02-14T00:21:07;19.30;;;13.93;;
52744;SDS011;38637;49.984;20.426;2024-02-14T00:23:32;17.47;;;12.53;;
52744;SDS011;38637;49.984;20.426;2024-02-14T00:25:58;20.53;;;12.93;;
52744;SDS011;38637;49.984;20.426;2024-02-14T00:28:23;18.53;;;11.93;;
52744;SDS011;38637;49.984;20.426;2024-02-14T00:30:51;20.83;;;12.52;;
52744;SDS011;38637;49.984;20.426;2024-02-14T00:33:17;21.83;;;11.93;;
52744;SDS011;38637;49.984;20.426;2024-02-14T00:38:09;16.33;;;10.45;;
52744;SDS011;38637;49.984;20.426;2024-02-14T00:40:34;16.97;;;11.77;;
52744;SDS011;38637;49.984;20.426;2024-02-14T00:43:00;16.20;;;10.30;;
52744;SDS011;38637;49.984;20.426;2024-02-14T00:45:25;15.27;;;10.07;;
52744;SDS011;38637;49.984;20.426;2024-02-14T00:47:50;18.70;;;11.67;;
52744;SDS011;38637;49.984;20.426;2024-02-14T00:50:15;17.93;;;11.03;;
52744;SDS011;38637;49.984;20.426;2024-02-14T00:52:41;16.33;;;10.93;;
52744;SDS011;38637;49.984;20.426;2024-02-14T00:55:07;19.30;;;11.47;;
52744;SDS011;38637;49.984;20.426;2024-02-14T00:57:32;15.30;;;10.63;;
52744;SDS011;38637;49.984;20.426;2024-02-14T00:59:57;13.37;;;9.53;;
52744;SDS011;38637;49.984;20.426;2024-02-14T01:02:23;17.03;;;10.97;;
52744;SDS011;38637;49.984;20.426;2024-02-14T01:04:48;22.17;;;11.80;;
52744;SDS011;38637;49.984;20.426;2024-02-14T01:07:14;17.00;;;10.60;;
52744;SDS011;38637;49.984;20.426;2024-02-14T01:09:39;13.67;;;8.87;;
52744;SDS011;38637;49.984;20.426;2024-02-14T01:12:04;15.27;;;10.57;;
52744;SDS011;38637;49.984;20.426;2024-02-14T01:14:30;16.20;;;10.30;;
52744;SDS011;38637;49.984;20.426;2024-02-14T01:16:56;17.52;;;11.40;;
52744;SDS011;38637;49.984;20.426;2024-02-14T01:19:21;18.50;;;10.40;;
52744;SDS011;38637;49.984;20.426;2024-02-14T01:21:48;14.50;;;10.00;;
52744;SDS011;38637;49.984;20.426;2024-02-14T01:24:14;18.17;;;11.10;;
52744;SDS011;38637;49.984;20.426;2024-02-14T01:26:41;20.20;;;11.23;;
52744;SDS011;38637;49.984;20.426;2024-02-14T01:29:06;19.40;;;9.80;;
52744;SDS011;38637;49.984;20.426;2024-02-14T01:31:32;17.80;;;10.10;;
52744;SDS011;38637;49.984;20.426;2024-02-14T01:33:59;18.52;;;10.20;;
52744;SDS011;38637;49.984;20.426;2024-02-14T01:36:27;14.38;;;10.00;;
52744;SDS011;38637;49.984;20.426;2024-02-14T01:38:53;12.52;;;9.43;;
52744;SDS011;38637;49.984;20.426;2024-02-14T01:41:18;17.53;;;10.83;;
52744;SDS011;38637;49.984;20.426;2024-02-14T01:43:44;15.63;;;10.27;;
52744;SDS011;38637;49.984;20.426;2024-02-14T01:46:10;20.03;;;12.17;;
52744;SDS011;38637;49.984;20.426;2024-02-14T01:48:35;17.83;;;11.57;;
52744;SDS011;38637;49.984;20.426;2024-02-14T01:51:02;22.00;;;14.38;;
52744;SDS011;38637;49.984;20.426;2024-02-14T01:53:29;18.38;;;12.57;;
52744;SDS011;38637;49.984;20.426;2024-02-14T01:55:59;22.15;;;14.07;;
52744;SDS011;38637;49.984;20.426;2024-02-14T01:58:24;19.77;;;12.52;;
52744;SDS011;38637;49.984;20.426;2024-02-14T02:00:51;18.30;;;12.17;;
52744;SDS011;38637;49.984;20.426;2024-02-14T02:03:22;19.02;;;13.05;;
52744;SDS011;38637;49.984;20.426;2024-02-14T02:08:13;18.10;;;11.50;;
52744;SDS011;38637;49.984;20.426;2024-02-14T02:10:39;17.17;;;11.03;;
52744;SDS011;38637;49.984;20.426;2024-02-14T02:13:05;17.88;;;11.70;;
52744;SDS011;38637;49.984;20.426;2024-02-14T02:15:30;19.20;;;11.80;;
52744;SDS011;38637;49.984;20.426;2024-02-14T02:17:56;23.27;;;12.80;;
52744;SDS011;38637;49.984;20.426;2024-02-14T02:20:22;26.27;;;13.70;;
52744;SDS011;38637;49.984;20.426;2024-02-14T02:22:47;19.90;;;13.37;;
52744;SDS011;38637;49.984;20.426;2024-02-14T02:25:13;22.13;;;13.63;;
52744;SDS011;38637;49.984;20.426;2024-02-14T02:27:39;21.90;;;13.60;;
52744;SDS011;38637;49.984;20.426;2024-02-14T02:30:07;23.20;;;14.77;;
52744;SDS011;38637;49.984;20.426;2024-02-14T02:32:35;19.83;;;13.73;;
52744;SDS011;38637;49.984;20.426;2024-02-14T02:35:01;21.73;;;14.93;;
52744;SDS011;38637;49.984;20.426;2024-02-14T02:37:26;23.03;;;15.73;;
52744;SDS011;38637;49.984;20.426;2024-02-14T02:39:54;29.75;;;16.90;;
52744;SDS011;38637;49.984;20.426;2024-02-14T02:42:20;25.13;;;16.73;;
52744;SDS011;38637;49.984;20.426;2024-02-14T02:44:49;29.10;;;17.43;;
52744;SDS011;38637;49.984;20.426;2024-02-14T02:47:15;27.73;;;18.92;;
52744;SDS011;38637;49.984;20.426;2024-02-14T02:49:41;30.50;;;22.07;;
52744;SDS011;38637;49.984;20.426;2024-02-14T02:52:09;30.92;;;22.35;;
52744;SDS011;38637;49.984;20.426;2024-02-14T02:54:37;33.35;;;21.38;;
52744;SDS011;38637;49.984;20.426;2024-02-14T02:57:08;35.03;;;23.50;;
52744;SDS011;38637;49.984;20.426;2024-02-14T02:59:35;33.00;;;23.35;;
52744;SDS011;38637;49.984;20.426;2024-02-14T03:02:01;32.27;;;21.73;;
52744;SDS011;38637;49.984;20.426;2024-02-14T03:04:27;29.05;;;20.90;;
52744;SDS011;38637;49.984;20.426;2024-02-14T03:06:52;31.87;;;21.30;;
52744;SDS011;38637;49.984;20.426;2024-02-14T03:09:18;36.78;;;24.38;;
52744;SDS011;38637;49.984;20.426;2024-02-14T03:11:47;32.07;;;23.17;;
52744;SDS011;38637;49.984;20.426;2024-02-14T03:14:15;40.97;;;25.95;;
52744;SDS011;38637;49.984;20.426;2024-02-14T03:16:40;33.63;;;23.37;;
52744;SDS011;38637;49.984;20.426;2024-02-14T03:19:05;37.10;;;24.03;;
52744;SDS011;38637;49.984;20.426;2024-02-14T03:21:31;33.07;;;22.13;;
52744;SDS011;38637;49.984;20.426;2024-02-14T03:24:01;34.35;;;22.15;;
52744;SDS011;38637;49.984;20.426;2024-02-14T03:26:28;28.67;;;18.95;;
52744;SDS011;38637;49.984;20.426;2024-02-14T03:28:53;29.73;;;19.17;;
52744;SDS011;38637;49.984;20.426;2024-02-14T03:31:19;25.38;;;18.08;;
52744;SDS011;38637;49.984;20.426;2024-02-14T03:33:45;25.35;;;17.33;;
52744;SDS011;38637;49.984;20.426;2024-02-14T03:36:10;31.97;;;18.67;;
52744;SDS011;38637;49.984;20.426;2024-02-14T03:38:36;30.97;;;20.30;;
52744;SDS011;38637;49.984;20.426;2024-02-14T03:41:01;32.83;;;22.27;;
52744;SDS011;38637;49.984;20.426;2024-02-14T03:43:28;37.90;;;26.50;;
52744;SDS011;38637;49.984;20.426;2024-02-14T03:45:53;31.77;;;23.90;;
52744;SDS011;38637;49.984;20.426;2024-02-14T03:48:19;41.72;;;26.50;;
52744;SDS011;38637;49.984;20.426;2024-02-14T03:50:45;41.27;;;28.43;;
52744;SDS011;38637;49.984;20.426;2024-02-14T03:53:10;46.90;;;33.30;;
52744;SDS011;38637;49.984;20.426;2024-02-14T03:55:39;46.15;;;33.38;;
52744;SDS011;38637;49.984;20.426;2024-02-14T03:58:05;38.37;;;29.10;;
52744;SDS011;38637;49.984;20.426;2024-02-14T04:00:31;34.03;;;24.55;;
52744;SDS011;38637;49.984;20.426;2024-02-14T04:02:56;31.60;;;22.13;;
52744;SDS011;38637;49.984;20.426;2024-02-14T04:05:24;31.20;;;22.85;;
52744;SDS011;38637;49.984;20.426;2024-02-14T04:07:52;34.15;;;24.88;;
52744;SDS011;38637;49.984;20.426;2024-02-14T04:10:18;32.53;;;22.63;;
52744;SDS011;38637;49.984;20.426;2024-02-14T04:12:43;28.73;;;18.83;;
52744;SDS011;38637;49.984;20.426;2024-02-14T04:15:09;26.00;;;16.90;;
52744;SDS011;38637;49.984;20.426;2024-02-14T04:17:34;24.57;;;16.53;;
52744;SDS011;38637;49.984;20.426;2024-02-14T04:19:59;20.23;;;15.17;;
52744;SDS011;38637;49.984;20.426;2024-02-14T04:22:24;25.07;;;16.50;;
52744;SDS011;38637;49.984;20.426;2024-02-14T04:24:50;21.77;;;15.27;;
52744;SDS011;38637;49.984;20.426;2024-02-14T04:27:15;26.53;;;16.30;;
52744;SDS011;38637;49.984;20.426;2024-02-14T04:29:40;24.67;;;15.33;;
52744;SDS011;38637;49.984;20.426;2024-02-14T04:32:09;21.92;;;16.98;;
52744;SDS011;38637;49.984;20.426;2024-02-14T04:34:35;25.53;;;16.37;;
52744;SDS011;38637;49.984;20.426;2024-02-14T04:37:03;23.67;;;16.52;;
52744;SDS011;38637;49.984;20.426;2024-02-14T04:39:35;30.17;;;16.95;;
52744;SDS011;38637;49.984;20.426;2024-02-14T04:42:00;27.60;;;17.30;;
52744;SDS011;38637;49.984;20.426;2024-02-14T04:44:26;24.20;;;17.17;;
52744;SDS011;38637;49.984;20.426;2024-02-14T04:46:51;30.77;;;17.83;;
52744;SDS011;38637;49.984;20.426;2024-02-14T04:49:16;21.47;;;16.90;;
52744;SDS011;38637;49.984;20.426;2024-02-14T04:51:42;31.23;;;21.77;;
52744;SDS011;38637;49.984;20.426;2024-02-14T04:54:07;42.53;;;31.53;;
52744;SDS011;38637;49.984;20.426;2024-02-14T04:56:33;38.75;;;22.52;;
52744;SDS011;38637;49.984;20.426;2024-02-14T04:58:59;38.80;;;24.53;;
52744;SDS011;38637;49.984;20.426;2024-02-14T05:01:24;68.97;;;42.43;;
52744;SDS011;38637;49.984;20.426;2024-02-14T05:03:50;73.20;;;42.38;;
52744;SDS011;38637;49.984;20.426;2024-02-14T05:06:15;51.73;;;31.77;;
52744;SDS011;38637;49.984;20.426;2024-02-14T05:08:41;48.57;;;30.77;;
52744;SDS011;38637;49.984;20.426;2024-02-14T05:11:06;48.67;;;28.00;;
52744;SDS011;38637;49.984;20.426;2024-02-14T05:13:31;48.67;;;28.73;;
52744;SDS011;38637;49.984;20.426;2024-02-14T05:15:57;38.53;;;25.83;;
52744;SDS011;38637;49.984;20.426;2024-02-14T05:18:22;37.00;;;23.47;;
52744;SDS011;38637;49.984;20.426;2024-02-14T05:20:47;36.77;;;22.67;;
52744;SDS011;38637;49.984;20.426;2024-02-14T05:23:13;31.63;;;23.43;;
52744;SDS011;38637;49.984;20.426;2024-02-14T05:25:38;43.53;;;24.67;;
52744;SDS011;38637;49.984;20.426;2024-02-14T05:28:04;32.47;;;21.17;;
52744;SDS011;38637;49.984;20.426;2024-02-14T05:30:30;32.10;;;21.20;;
52744;SDS011;38637;49.984;20.426;2024-02-14T05:32:56;27.30;;;20.02;;
52744;SDS011;38637;49.984;20.426;2024-02-14T05:35:22;28.73;;;21.70;;
52744;SDS011;38637;49.984;20.426;2024-02-14T05:37:47;37.33;;;18.17;;
52744;SDS011;38637;49.984;20.426;2024-02-14T05:40:15;25.45;;;17.02;;
52744;SDS011;38637;49.984;20.426;2024-02-14T05:42:40;26.60;;;18.70;;
52744;SDS011;38637;49.984;20.426;2024-02-14T05:45:06;30.00;;;20.93;;
52744;SDS011;38637;49.984;20.426;2024-02-14T05:47:34;32.47;;;20.02;;
52744;SDS011;38637;49.984;20.426;2024-02-14T05:50:00;49.33;;;21.33;;
52744;SDS011;38637;49.984;20.426;2024-02-14T05:52:26;39.95;;;26.27;;
52744;SDS011;38637;49.984;20.426;2024-02-14T05:54:51;26.63;;;18.03;;
52744;SDS011;38637;49.984;20.426;2024-02-14T05:57:16;30.40;;;20.93;;
52744;SDS011;38637;49.984;20.426;2024-02-14T05:59:42;27.50;;;18.93;;
52744;SDS011;38637;49.984;20.426;2024-02-14T06:02:07;35.70;;;22.10;;
52744;SDS011;38637;49.984;20.426;2024-02-14T06:04:34;29.20;;;20.58;;
52744;SDS011;38637;49.984;20.426;2024-02-14T06:07:00;32.72;;;19.73;;
52744;SDS011;38637;49.984;20.426;2024-02-14T06:09:26;31.20;;;20.27;;
52744;SDS011;38637;49.984;20.426;2024-02-14T06:11:52;29.63;;;20.00;;
52744;SDS011;38637;49.984;20.426;2024-02-14T06:14:17;29.83;;;19.73;;
52744;SDS011;38637;49.984;20.426;2024-02-14T06:16:43;31.92;;;19.98;;
52744;SDS011;38637;49.984;20.426;2024-02-14T06:19:09;36.97;;;22.80;;
52744;SDS011;38637;49.984;20.426;2024-02-14T06:21:35;33.78;;;20.40;;
52744;SDS011;38637;49.984;20.426;2024-02-14T06:24:01;32.57;;;19.53;;
52744;SDS011;38637;49.984;20.426;2024-02-14T06:26:28;32.47;;;19.83;;
52744;SDS011;38637;49.984;20.426;2024-02-14T06:28:54;29.10;;;18.97;;
52744;SDS011;38637;49.984;20.426;2024-02-14T06:31:20;34.80;;;20.70;;
52744;SDS011;38637;49.984;20.426;2024-02-14T06:33:46;34.78;;;20.67;;
52744;SDS011;38637;49.984;20.426;2024-02-14T06:36:11;40.70;;;21.17;;
52744;SDS011;38637;49.984;20.426;2024-02-14T06:38:36;34.27;;;21.30;;
52744;SDS011;38637;49.984;20.426;2024-02-14T06:41:02;41.83;;;27.53;;
52744;SDS011;38637;49.984;20.426;2024-02-14T06:43:27;40.23;;;25.97;;
52744;SDS011;38637;49.984;20.426;2024-02-14T06:45:55;29.80;;;21.30;;
52744;SDS011;38637;49.984;20.426;2024-02-14T06:48:20;41.35;;;21.85;;
52744;SDS011;38637;49.984;20.426;2024-02-14T06:50:48;38.55;;;22.63;;
52744;SDS011;38637;49.984;20.426;2024-02-14T06:53:14;43.37;;;26.27;;
52744;SDS011;38637;49.984;20.426;2024-02-14T06:55:39;45.43;;;26.83;;
52744;SDS011;38637;49.984;20.426;2024-02-14T06:58:04;38.03;;;25.53;;
52744;SDS011;38637;49.984;20.426;2024-02-14T07:00:29;42.77;;;25.27;;
52744;SDS011;38637;49.984;20.426;2024-02-14T07:02:55;48.30;;;29.10;;
52744;SDS011;38637;49.984;20.426;2024-02-14T07:05:20;54.33;;;32.83;;
52744;SDS011;38637;49.984;20.426;2024-02-14T07:07:45;50.50;;;30.83;;
52744;SDS011;38637;49.984;20.426;2024-02-14T07:10:11;51.63;;;29.00;;
52744;SDS011;38637;49.984;20.426;2024-02-14T07:12:38;38.67;;;24.60;;
52744;SDS011;38637;49.984;20.426;2024-02-14T07:15:04;34.13;;;22.42;;
52744;SDS011;38637;49.984;20.426;2024-02-14T07:17:30;32.25;;;20.52;;
52744;SDS011;38637;49.984;20.426;2024-02-14T07:19:56;28.60;;;17.10;;
52744;SDS011;38637;49.984;20.426;2024-02-14T07:22:21;27.93;;;17.77;;
52744;SDS011;38637;49.984;20.426;2024-02-14T07:24:47;27.47;;;18.20;;
52744;SDS011;38637;49.984;20.426;2024-02-14T07:27:13;28.00;;;19.00;;
52744;SDS011;38637;49.984;20.426;2024-02-14T07:29:39;29.25;;;19.88;;
52744;SDS011;38637;49.984;20.426;2024-02-14T07:32:05;33.70;;;25.67;;
52744;SDS011;38637;49.984;20.426;2024-02-14T07:34:31;32.17;;;19.52;;
52744;SDS011;38637;49.984;20.426;2024-02-14T07:36:56;28.10;;;17.30;;
52744;SDS011;38637;49.984;20.426;2024-02-14T07:39:22;31.73;;;16.10;;
52744;SDS011;38637;49.984;20.426;2024-02-14T07:41:47;24.50;;;16.47;;
52744;SDS011;38637;49.984;20.426;2024-02-14T07:44:12;31.07;;;19.27;;
52744;SDS011;38637;49.984;20.426;2024-02-14T07:46:38;26.27;;;17.57;;
52744;SDS011;38637;49.984;20.426;2024-02-14T07:49:03;26.27;;;18.73;;
52744;SDS011;38637;49.984;20.426;2024-02-14T07:51:30;36.65;;;24.60;;
52744;SDS011;38637;49.984;20.426;2024-02-14T07:53:55;33.77;;;20.17;;
52744;SDS011;38637;49.984;20.426;2024-02-14T07:56:20;38.37;;;27.97;;
52744;SDS011;38637;49.984;20.426;2024-02-14T07:58:46;33.33;;;20.90;;
52744;SDS011;38637;49.984;20.426;2024-02-14T08:01:11;23.53;;;16.13;;
52744;SDS011;38637;49.984;20.426;2024-02-14T08:03:36;21.17;;;13.57;;
52744;SDS011;38637;49.984;20.426;2024-02-14T08:06:01;30.93;;;14.80;;
52744;SDS011;38637;49.984;20.426;2024-02-14T08:08:27;22.27;;;15.77;;
52744;SDS011;38637;49.984;20.426;2024-02-14T08:10:52;32.47;;;18.80;;
52744;SDS011;38637;49.984;20.426;2024-02-14T08:13:18;24.03;;;16.77;;
52744;SDS011;38637;49.984;20.426;2024-02-14T08:15:43;14.80;;;11.20;;
52744;SDS011;38637;49.984;20.426;2024-02-14T08:18:08;13.00;;;8.03;;
52744;SDS011;38637;49.984;20.426;2024-02-14T08:20:33;11.67;;;7.53;;
52744;SDS011;38637;49.984;20.426;2024-02-14T08:22:59;17.03;;;12.00;;
52744;SDS011;38637;49.984;20.426;2024-02-14T08:25:24;13.00;;;6.50;;
52744;SDS011;38637;49.984;20.426;2024-02-14T08:27:49;8.07;;;5.37;;
52744;SDS011;38637;49.984;20.426;2024-02-14T08:30:15;6.80;;;4.30;;
52744;SDS011;38637;49.984;20.426;2024-02-14T08:32:42;8.48;;;4.82;;
52744;SDS011;38637;49.984;20.426;2024-02-14T08:35:07;7.80;;;4.90;;
52744;SDS011;38637;49.984;20.426;2024-02-14T08:37:34;6.63;;;3.63;;
52744;SDS011;38637;49.984;20.426;2024-02-14T08:40:01;5.22;;;3.58;;
52744;SDS011;38637;49.984;20.426;2024-02-14T08:42:30;5.75;;;3.33;;
52744;SDS011;38637;49.984;20.426;2024-02-14T08:44:56;4.53;;;2.60;;
52744;SDS011;38637;49.984;20.426;2024-02-14T08:47:21;5.23;;;3.20;;
52744;SDS011;38637;49.984;20.426;2024-02-14T08:49:46;7.70;;;4.73;;
52744;SDS011;38637;49.984;20.426;2024-02-14T08:52:12;12.33;;;5.67;;
52744;SDS011;38637;49.984;20.426;2024-02-14T08:54:37;9.93;;;3.27;;
52744;SDS011;38637;49.984;20.426;2024-02-14T08:57:02;5.33;;;2.37;;
52744;SDS011;38637;49.984;20.426;2024-02-14T08:59:28;5.53;;;2.73;;
52744;SDS011;38637;49.984;20.426;2024-02-14T09:01:53;5.03;;;2.67;;
52744;SDS011;38637;49.984;20.426;2024-02-14T09:04:19;6.23;;;2.87;;
52744;SDS011;38637;49.984;20.426;2024-02-14T09:06:44;6.73;;;2.70;;
52744;SDS011;38637;49.984;20.426;2024-02-14T09:09:09;2.90;;;1.77;;
52744;SDS011;38637;49.984;20.426;2024-02-14T09:11:35;7.13;;;2.30;;
52744;SDS011;38637;49.984;20.426;2024-02-14T09:14:00;6.53;;;2.17;;
52744;SDS011;38637;49.984;20.426;2024-02-14T09:16:31;3.13;;;1.98;;
52744;SDS011;38637;49.984;20.426;2024-02-14T09:18:56;10.50;;;2.90;;
52744;SDS011;38637;49.984;20.426;2024-02-14T09:21:22;4.93;;;1.58;;
52744;SDS011;38637;49.984;20.426;2024-02-14T09:23:48;1.80;;;1.50;;
52744;SDS011;38637;49.984;20.426;2024-02-14T09:26:13;6.00;;;1.93;;
52744;SDS011;38637;49.984;20.426;2024-02-14T09:28:42;8.13;;;1.80;;
52744;SDS011;38637;49.984;20.426;2024-02-14T09:31:08;3.15;;;1.95;;
52744;SDS011;38637;49.984;20.426;2024-02-14T09:33:36;6.55;;;2.30;;
52744;SDS011;38637;49.984;20.426;2024-02-14T09:36:02;4.70;;;1.80;;
52744;SDS011;38637;49.984;20.426;2024-02-14T09:38:27;2.65;;;1.30;;
52744;SDS011;38637;49.984;20.426;2024-02-14T09:40:54;2.35;;;1.17;;
52744;SDS011;38637;49.984;20.426;2024-02-14T09:43:34;3.25;;;1.80;;
52744;SDS011;38637;49.984;20.426;2024-02-14T09:46:01;6.28;;;1.60;;
52744;SDS011;38637;49.984;20.426;2024-02-14T09:48:28;4.55;;;2.08;;
52744;SDS011;38637;49.984;20.426;2024-02-14T09:53:21;6.95;;;2.17;;
52744;SDS011;38637;49.984;20.426;2024-02-14T09:55:47;6.88;;;2.40;;
52744;SDS011;38637;49.984;20.426;2024-02-14T10:00:39;3.13;;;1.92;;
52744;SDS011;38637;49.984;20.426;2024-02-14T10:03:06;3.80;;;2.05;;
52744;SDS011;38637;49.984;20.426;2024-02-14T10:05:31;7.10;;;2.10;;
52744;SDS011;38637;49.984;20.426;2024-02-14T10:07:57;8.17;;;1.90;;
52744;SDS011;38637;49.984;20.426;2024-02-14T10:10:26;3.50;;;1.92;;
52744;SDS011;38637;49.984;20.426;2024-02-14T10:12:54;5.57;;;2.17;;
52744;SDS011;38637;49.984;20.426;2024-02-14T10:15:19;3.95;;;2.20;;
52744;SDS011;38637;49.984;20.426;2024-02-14T10:17:45;2.60;;;1.90;;
52744;SDS011;38637;49.984;20.426;2024-02-14T10:20:10;3.90;;;1.90;;
52744;SDS011;38637;49.984;20.426;2024-02-14T10:22:36;5.13;;;2.43;;
52744;SDS011;38637;49.984;20.426;2024-02-14T10:25:03;4.20;;;2.08;;
52744;SDS011;38637;49.984;20.426;2024-02-14T10:27:32;5.93;;;2.03;;
52744;SDS011;38637;49.984;20.426;2024-02-14T10:29:57;6.55;;;2.65;;
52744;SDS011;38637;49.984;20.426;2024-02-14T10:32:22;4.33;;;2.10;;
52744;SDS011;38637;49.984;20.426;2024-02-14T10:34:49;6.03;;;3.33;;
52744;SDS011;38637;49.984;20.426;2024-02-14T10:37:15;7.97;;;3.83;;
52744;SDS011;38637;49.984;20.426;2024-02-14T10:39:43;7.90;;;4.18;;
52744;SDS011;38637;49.984;20.426;2024-02-14T10:42:11;14.55;;;2.65;;
52744;SDS011;38637;49.984;20.426;2024-02-14T10:44:37;2.88;;;2.30;;
52744;SDS011;38637;49.984;20.426;2024-02-14T10:47:03;3.67;;;1.50;;
52744;SDS011;38637;49.984;20.426;2024-02-14T10:49:34;3.10;;;1.25;;
52744;SDS011;38637;49.984;20.426;2024-02-14T10:52:02;3.60;;;1.85;;
52744;SDS011;38637;49.984;20.426;2024-02-14T10:54:32;3.08;;;1.60;;
52744;SDS011;38637;49.984;20.426;2024-02-14T10:57:00;6.45;;;1.77;;
52744;SDS011;38637;49.984;20.426;2024-02-14T10:59:41;16.05;;;6.97;;
52744;SDS011;38637;49.984;20.426;2024-02-14T11:02:09;7.72;;;3.30;;
52744;SDS011;38637;49.984;20.426;2024-02-14T11:04:35;5.10;;;2.38;;
52744;SDS011;38637;49.984;20.426;2024-02-14T11:07:02;3.97;;;1.95;;
52744;SDS011;38637;49.984;20.426;2024-02-14T11:09:32;4.25;;;1.67;;
52744;SDS011;38637;49.984;20.426;2024-02-14T11:12:00;4.75;;;1.70;;
52744;SDS011;38637;49.984;20.426;2024-02-14T11:14:29;3.45;;;1.20;;
52744;SDS011;38637;49.984;20.426;2024-02-14T11:16:57;3.00;;;1.40;;
52744;SDS011;38637;49.984;20.426;2024-02-14T11:19:30;2.95;;;1.40;;
52744;SDS011;38637;49.984;20.426;2024-02-14T11:22:09;4.53;;;1.33;;
52744;SDS011;38637;49.984;20.426;2024-02-14T11:24:36;4.07;;;1.58;;
52744;SDS011;38637;49.984;20.426;2024-02-14T11:27:02;2.40;;;1.20;;
52744;SDS011;38637;49.984;20.426;2024-02-14T11:29:30;2.40;;;1.60;;
52744;SDS011;38637;49.984;20.426;2024-02-14T11:31:59;5.93;;;1.40;;
52744;SDS011;38637;49.984;20.426;2024-02-14T11:34:26;4.65;;;1.70;;
52744;SDS011;38637;49.984;20.426;2024-02-14T11:36:52;2.28;;;1.40;;
52744;SDS011;38637;49.984;20.426;2024-02-14T11:39:17;6.17;;;1.40;;
52744;SDS011;38637;49.984;20.426;2024-02-14T11:41:42;2.10;;;1.27;;
52744;SDS011;38637;49.984;20.426;2024-02-14T11:44:08;2.13;;;1.23;;
52744;SDS011;38637;49.984;20.426;2024-02-14T11:46:34;3.37;;;1.23;;
52744;SDS011;38637;49.984;20.426;2024-02-14T11:49:03;4.38;;;1.50;;
52744;SDS011;38637;49.984;20.426;2024-02-14T11:51:30;2.58;;;1.20;;
52744;SDS011;38637;49.984;20.426;2024-02-14T11:53:59;3.55;;;1.50;;
52744;SDS011;38637;49.984;20.426;2024-02-14T11:56:32;3.83;;;1.42;;
52744;SDS011;38637;49.984;20.426;2024-02-14T11:58:59;2.10;;;1.17;;
52744;SDS011;38637;49.984;20.426;2024-02-14T12:01:25;3.15;;;1.30;;
52744;SDS011;38637;49.984;20.426;2024-02-14T12:03:51;2.27;;;1.37;;
52744;SDS011;38637;49.984;20.426;2024-02-14T12:06:17;2.40;;;1.20;;
52744;SDS011;38637;49.984;20.426;2024-02-14T12:08:42;5.47;;;1.60;;
52744;SDS011;38637;49.984;20.426;2024-02-14T12:11:08;3.70;;;1.30;;
52744;SDS011;38637;49.984;20.426;2024-02-14T12:13:33;4.77;;;1.40;;
52744;SDS011;38637;49.984;20.426;2024-02-14T12:16:02;4.97;;;2.00;;
52744;SDS011;38637;49.984;20.426;2024-02-14T12:18:28;4.57;;;1.37;;
52744;SDS011;38637;49.984;20.426;2024-02-14T12:21:02;3.93;;;1.37;;
52744;SDS011;38637;49.984;20.426;2024-02-14T12:23:28;5.10;;;1.35;;
52744;SDS011;38637;49.984;20.426;2024-02-14T12:25:54;3.13;;;1.27;;
52744;SDS011;38637;49.984;20.426;2024-02-14T12:28:28;2.92;;;1.40;;
52744;SDS011;38637;49.984;20.426;2024-02-14T12:30:55;3.25;;;1.38;;
52744;SDS011;38637;49.984;20.426;2024-02-14T12:33:24;3.25;;;1.50;;
52744;SDS011;38637;49.984;20.426;2024-02-14T12:35:50;7.50;;;1.50;;
52744;SDS011;38637;49.984;20.426;2024-02-14T12:38:17;2.75;;;1.20;;
52744;SDS011;38637;49.984;20.426;2024-02-14T12:40:43;7.90;;;1.38;;
52744;SDS011;38637;49.984;20.426;2024-02-14T12:43:11;6.97;;;1.63;;
52744;SDS011;38637;49.984;20.426;2024-02-14T12:45:39;2.40;;;1.35;;
52744;SDS011;38637;49.984;20.426;2024-02-14T12:48:06;4.90;;;1.48;;
52744;SDS011;38637;49.984;20.426;2024-02-14T12:50:33;2.15;;;1.60;;
52744;SDS011;38637;49.984;20.426;2024-02-14T12:52:59;1.92;;;1.40;;
52744;SDS011;38637;49.984;20.426;2024-02-14T12:55:25;6.75;;;1.35;;
52744;SDS011;38637;49.984;20.426;2024-02-14T12:57:51;3.43;;;1.27;;
52744;SDS011;38637;49.984;20.426;2024-02-14T13:00:17;2.83;;;1.30;;
52744;SDS011;38637;49.984;20.426;2024-02-14T13:02:42;8.02;;;1.70;;
52744;SDS011;38637;49.984;20.426;2024-02-14T13:05:08;10.17;;;1.97;;
52744;SDS011;38637;49.984;20.426;2024-02-14T13:07:36;3.40;;;1.70;;
52744;SDS011;38637;49.984;20.426;2024-02-14T13:10:02;9.77;;;2.05;;
52744;SDS011;38637;49.984;20.426;2024-02-14T13:12:28;3.90;;;1.52;;
52744;SDS011;38637;49.984;20.426;2024-02-14T13:14:54;12.50;;;1.98;;
52744;SDS011;38637;49.984;20.426;2024-02-14T13:17:19;2.90;;;1.10;;
52744;SDS011;38637;49.984;20.426;2024-02-14T13:19:44;5.27;;;1.40;;
52744;SDS011;38637;49.984;20.426;2024-02-14T13:22:10;8.20;;;1.80;;
52744;SDS011;38637;49.984;20.426;2024-02-14T13:24:36;1.67;;;1.00;;
52744;SDS011;38637;49.984;20.426;2024-02-14T13:27:01;2.30;;;1.40;;
52744;SDS011;38637;49.984;20.426;2024-02-14T13:29:26;12.47;;;1.97;;
52744;SDS011;38637;49.984;20.426;2024-02-14T13:31:52;3.13;;;1.27;;
52744;SDS011;38637;49.984;20.426;2024-02-14T13:34:17;1.20;;;1.10;;
52744;SDS011;38637;49.984;20.426;2024-02-14T13:36:46;4.38;;;1.23;;
52744;SDS011;38637;49.984;20.426;2024-02-14T13:39:12;6.20;;;1.40;;
52744;SDS011;38637;49.984;20.426;2024-02-14T13:41:37;5.37;;;1.40;;
52744;SDS011;38637;49.984;20.426;2024-02-14T13:44:03;9.50;;;2.10;;
52744;SDS011;38637;49.984;20.426;2024-02-14T13:46:29;4.45;;;1.80;;
52744;SDS011;38637;49.984;20.426;2024-02-14T13:48:54;4.73;;;1.27;;
52744;SDS011;38637;49.984;20.426;2024-02-14T13:51:20;2.17;;;1.17;;
52744;SDS011;38637;49.984;20.426;2024-02-14T13:53:46;2.13;;;1.27;;
52744;SDS011;38637;49.984;20.426;2024-02-14T13:56:11;2.97;;;1.30;;
52744;SDS011;38637;49.984;20.426;2024-02-14T13:58:37;1.87;;;1.23;;
52744;SDS011;38637;49.984;20.426;2024-02-14T14:01:03;5.22;;;1.10;;
52744;SDS011;38637;49.984;20.426;2024-02-14T14:03:29;6.03;;;1.33;;
52744;SDS011;38637;49.984;20.426;2024-02-14T14:05:54;2.70;;;1.30;;
52744;SDS011;38637;49.984;20.426;2024-02-14T14:10:47;1.83;;;1.25;;
52744;SDS011;38637;49.984;20.426;2024-02-14T14:13:12;4.10;;;1.50;;
52744;SDS011;38637;49.984;20.426;2024-02-14T14:15:38;2.13;;;1.23;;
52744;SDS011;38637;49.984;20.426;2024-02-14T14:18:04;4.37;;;1.40;;
52744;SDS011;38637;49.984;20.426;2024-02-14T14:20:29;3.33;;;1.50;;
52744;SDS011;38637;49.984;20.426;2024-02-14T14:22:54;1.83;;;1.43;;
52744;SDS011;38637;49.984;20.426;2024-02-14T14:25:20;4.10;;;1.63;;